sensor_id;sensor_type;location;lat;lon;timestamp;pressure;altitude;pressure_sealevel;temperature;humidity
46408;BME280;32110;45.724;21.276;2023-10-09T05:12:33;101461.84;;;5.65;nan
46408;BME280;32110;45.724;21.276;2023-10-09T05:14:58;101452.03;;;5.67;nan
46408;BME280;32110;45.724;21.276;2023-10-09T05:17:36;101441.28;;;5.62;nan
46408;BME280;32110;45.724;21.276;2023-10-09T05:20:04;101450.91;;;5.69;nan
46408;BME280;32110;45.724;21.276;2023-10-09T05:22:48;101448.28;;;5.69;nan
46408;BME280;32110;45.724;21.276;2023-10-09T05:25:26;101450.59;;;5.72;nan
46408;BME280;32110;45.724;21.276;2023-10-09T05:28:10;101417.78;;;5.53;nan
46408;BME280;32110;45.724;21.276;2023-10-09T05:30:51;101467.38;;;5.78;nan
46408;BME280;32110;45.724;21.276;2023-10-09T05:33:31;101450.41;;;5.74;nan
46408;BME280;32110;45.724;21.276;2023-10-09T05:36:00;101457.78;;;5.70;nan
46408;BME280;32110;45.724;21.276;2023-10-09T05:38:43;101471.47;;;5.81;nan
46408;BME280;32110;45.724;21.276;2023-10-09T05:41:23;101463.78;;;5.79;nan
46408;BME280;32110;45.724;21.276;2023-10-09T05:44:18;101467.38;;;5.78;nan
46408;BME280;32110;45.724;21.276;2023-10-09T05:47:07;101476.03;;;5.87;nan
46408;BME280;32110;45.724;21.276;2023-10-09T05:49:51;101470.66;;;5.80;nan
46408;BME280;32110;45.724;21.276;2023-10-09T05:52:34;101483.88;;;5.87;nan
46408;BME280;32110;45.724;21.276;2023-10-09T05:55:03;101470.84;;;5.70;nan
46408;BME280;32110;45.724;21.276;2023-10-09T05:57:40;101491.72;;;5.87;nan
46408;BME280;32110;45.724;21.276;2023-10-09T06:00:24;101465.88;;;5.84;nan
46408;BME280;32110;45.724;21.276;2023-10-09T06:03:22;101473.41;;;5.87;nan
46408;BME280;32110;45.724;21.276;2023-10-09T06:05:53;101477.00;;;5.86;nan
46408;BME280;32110;45.724;21.276;2023-10-09T06:08:25;101477.31;;;5.91;nan
46408;BME280;32110;45.724;21.276;2023-10-09T06:11:14;101473.41;;;5.95;nan
46408;BME280;32110;45.724;21.276;2023-10-09T06:14:00;101468.84;;;5.97;nan
46408;BME280;32110;45.724;21.276;2023-10-09T06:16:32;101500.69;;;6.09;nan
46408;BME280;32110;45.724;21.276;2023-10-09T06:19:10;101486.44;;;6.11;nan
46408;BME280;32110;45.724;21.276;2023-10-09T06:21:45;101486.25;;;6.13;nan
46408;BME280;32110;45.724;21.276;2023-10-09T06:24:17;101497.31;;;6.31;nan
46408;BME280;32110;45.724;21.276;2023-10-09T06:26:45;101467.28;;;6.19;nan
46408;BME280;32110;45.724;21.276;2023-10-09T06:29:23;101483.78;;;6.28;nan
46408;BME280;32110;45.724;21.276;2023-10-09T06:32:01;101478.84;;;6.33;nan
46408;BME280;32110;45.724;21.276;2023-10-09T06:34:51;101498.06;;;6.48;nan
46408;BME280;32110;45.724;21.276;2023-10-09T06:37:43;101517.00;;;6.58;nan
46408;BME280;32110;45.724;21.276;2023-10-09T06:40:31;101513.22;;;6.61;nan
46408;BME280;32110;45.724;21.276;2023-10-09T06:43:16;101501.56;;;6.72;nan
46408;BME280;32110;45.724;21.276;2023-10-09T06:45:53;101458.63;;;6.81;nan
46408;BME280;32110;45.724;21.276;2023-10-09T06:48:38;101471.84;;;6.88;nan
46408;BME280;32110;45.724;21.276;2023-10-09T06:51:08;101495.13;;;7.06;nan
46408;BME280;32110;45.724;21.276;2023-10-09T06:54:00;101491.28;;;7.16;nan
46408;BME280;32110;45.724;21.276;2023-10-09T06:56:31;101503.16;;;7.27;nan
46408;BME280;32110;45.724;21.276;2023-10-09T06:59:04;101451.25;;;7.08;nan
46408;BME280;32110;45.724;21.276;2023-10-09T07:01:40;101490.97;;;7.34;nan
46408;BME280;32110;45.724;21.276;2023-10-09T07:04:12;101490.91;;;7.42;nan
46408;BME280;32110;45.724;21.276;2023-10-09T07:06:55;101490.75;;;7.59;nan
46408;BME280;32110;45.724;21.276;2023-10-09T07:09:22;101496.56;;;7.69;nan
46408;BME280;32110;45.724;21.276;2023-10-09T07:11:52;101496.31;;;7.79;nan
46408;BME280;32110;45.724;21.276;2023-10-09T07:40:37;101462.34;;;8.88;nan
46408;BME280;32110;45.724;21.276;2023-10-09T07:43:26;101458.19;;;9.00;nan
46408;BME280;32110;45.724;21.276;2023-10-09T07:45:55;101439.88;;;9.07;nan
46408;BME280;32110;45.724;21.276;2023-10-09T07:48:24;101433.09;;;9.19;nan
46408;BME280;32110;45.724;21.276;2023-10-09T07:50:54;101432.19;;;9.33;nan
46408;BME280;32110;45.724;21.276;2023-10-09T07:53:25;101431.13;;;9.49;nan
46408;BME280;32110;45.724;21.276;2023-10-09T07:55:54;101440.31;;;9.60;nan
46408;BME280;32110;45.724;21.276;2023-10-09T07:58:32;101434.25;;;9.66;nan
46408;BME280;32110;45.724;21.276;2023-10-09T08:00:59;101455.00;;;9.83;nan
46408;BME280;32110;45.724;21.276;2023-10-09T08:03:36;101451.00;;;9.93;nan
46408;BME280;32110;45.724;21.276;2023-10-09T08:06:02;101443.56;;;10.04;nan
46408;BME280;32110;45.724;21.276;2023-10-09T08:08:46;101430.84;;;10.14;nan
46408;BME280;32110;45.724;21.276;2023-10-09T08:11:30;101440.84;;;10.32;nan
46408;BME280;32110;45.724;21.276;2023-10-09T08:14:16;101425.50;;;10.35;nan
46408;BME280;32110;45.724;21.276;2023-10-09T08:16:50;101429.34;;;10.46;nan
46408;BME280;32110;45.724;21.276;2023-10-09T08:19:31;101421.69;;;10.45;nan
46408;BME280;32110;45.724;21.276;2023-10-09T08:22:00;101417.44;;;10.50;nan
46408;BME280;32110;45.724;21.276;2023-10-09T08:24:45;101414.81;;;10.57;nan
46408;BME280;32110;45.724;21.276;2023-10-09T08:27:30;101421.31;;;10.68;nan
46408;BME280;32110;45.724;21.276;2023-10-09T08:30:06;101421.53;;;10.73;nan
46408;BME280;32110;45.724;21.276;2023-10-09T08:32:38;101411.97;;;10.65;nan
46408;BME280;32110;45.724;21.276;2023-10-09T08:35:08;101429.84;;;10.83;nan
46408;BME280;32110;45.724;21.276;2023-10-09T08:37:58;101420.31;;;10.89;nan
46408;BME280;32110;45.724;21.276;2023-10-09T08:40:43;101423.38;;;10.92;nan
46408;BME280;32110;45.724;21.276;2023-10-09T08:45:41;101414.47;;;11.00;nan
46408;BME280;32110;45.724;21.276;2023-10-09T08:48:11;101418.09;;;11.12;nan
46408;BME280;32110;45.724;21.276;2023-10-09T08:50:46;101397.81;;;11.13;nan
46408;BME280;32110;45.724;21.276;2023-10-09T08:53:15;101398.25;;;11.23;nan
46408;BME280;32110;45.724;21.276;2023-10-09T08:55:44;101385.63;;;11.25;nan
46408;BME280;32110;45.724;21.276;2023-10-09T08:58:11;101385.22;;;11.35;nan
46408;BME280;32110;45.724;21.276;2023-10-09T09:01:00;101380.75;;;11.42;nan
46408;BME280;32110;45.724;21.276;2023-10-09T09:03:26;101371.41;;;11.46;nan
46408;BME280;32110;45.724;21.276;2023-10-09T09:06:00;101359.00;;;11.53;nan
46408;BME280;32110;45.724;21.276;2023-10-09T09:08:32;101360.00;;;11.65;nan
46408;BME280;32110;45.724;21.276;2023-10-09T09:14:02;101350.81;;;11.81;nan
46408;BME280;32110;45.724;21.276;2023-10-09T09:16:40;101364.38;;;11.91;nan
46408;BME280;32110;45.724;21.276;2023-10-09T09:19:09;101342.91;;;11.88;nan
46408;BME280;32110;45.724;21.276;2023-10-09T09:21:47;101349.69;;;12.09;nan
46408;BME280;32110;45.724;21.276;2023-10-09T09:24:14;101340.91;;;12.15;nan
46408;BME280;32110;45.724;21.276;2023-10-09T09:26:50;101337.38;;;12.28;nan
46408;BME280;32110;45.724;21.276;2023-10-09T09:32:02;101319.41;;;12.43;nan
46408;BME280;32110;45.724;21.276;2023-10-09T09:34:50;101303.69;;;12.55;nan
46408;BME280;32110;45.724;21.276;2023-10-09T09:37:24;101303.19;;;12.65;nan
46408;BME280;32110;45.724;21.276;2023-10-09T09:39:55;101286.34;;;12.59;nan
46408;BME280;32110;45.724;21.276;2023-10-09T09:42:22;101298.00;;;12.76;nan
46408;BME280;32110;45.724;21.276;2023-10-09T09:44:53;101286.56;;;12.83;nan
46408;BME280;32110;45.724;21.276;2023-10-09T09:47:19;101276.22;;;12.81;nan
46408;BME280;32110;45.724;21.276;2023-10-09T09:49:54;101286.50;;;12.89;nan
46408;BME280;32110;45.724;21.276;2023-10-09T09:52:40;101274.22;;;12.95;nan
46408;BME280;32110;45.724;21.276;2023-10-09T09:55:08;101272.56;;;13.01;nan
46408;BME280;32110;45.724;21.276;2023-10-09T09:57:44;101278.34;;;13.09;nan
46408;BME280;32110;45.724;21.276;2023-10-09T10:00:12;101299.19;;;13.24;nan
46408;BME280;32110;45.724;21.276;2023-10-09T10:02:57;101295.44;;;13.32;nan
46408;BME280;32110;45.724;21.276;2023-10-09T10:05:25;101277.44;;;13.40;nan
46408;BME280;32110;45.724;21.276;2023-10-09T10:07:57;101278.66;;;13.56;nan
46408;BME280;32110;45.724;21.276;2023-10-09T10:10:40;101248.31;;;13.59;nan
46408;BME280;32110;45.724;21.276;2023-10-09T10:16:07;101257.06;;;13.90;nan
46408;BME280;32110;45.724;21.276;2023-10-09T10:21:25;101226.34;;;14.12;nan
46408;BME280;32110;45.724;21.276;2023-10-09T10:23:57;101229.03;;;14.24;nan
46408;BME280;32110;45.724;21.276;2023-10-09T10:26:32;101219.81;;;14.38;nan
46408;BME280;32110;45.724;21.276;2023-10-09T10:31:52;101196.34;;;14.54;nan
46408;BME280;32110;45.724;21.276;2023-10-09T10:34:19;101201.06;;;14.63;nan
46408;BME280;32110;45.724;21.276;2023-10-09T10:36:52;101191.59;;;14.67;nan
46408;BME280;32110;45.724;21.276;2023-10-09T10:39:24;101202.44;;;14.78;nan
46408;BME280;32110;45.724;21.276;2023-10-09T10:42:08;101198.84;;;14.84;nan
46408;BME280;32110;45.724;21.276;2023-10-09T10:44:34;101190.19;;;14.88;nan
46408;BME280;32110;45.724;21.276;2023-10-09T10:47:05;101186.50;;;14.89;nan
46408;BME280;32110;45.724;21.276;2023-10-09T10:49:30;101184.63;;;15.02;nan
46408;BME280;32110;45.724;21.276;2023-10-09T10:52:02;101186.50;;;15.01;nan
46408;BME280;32110;45.724;21.276;2023-10-09T10:54:42;101182.09;;;15.07;nan
46408;BME280;32110;45.724;21.276;2023-10-09T10:57:18;101179.03;;;15.15;nan
46408;BME280;32110;45.724;21.276;2023-10-09T10:59:45;101161.63;;;15.19;nan
46408;BME280;32110;45.724;21.276;2023-10-09T11:02:11;101125.09;;;15.09;nan
46408;BME280;32110;45.724;21.276;2023-10-09T11:04:37;101143.56;;;15.33;nan
46408;BME280;32110;45.724;21.276;2023-10-09T11:07:04;101135.69;;;15.38;nan
46408;BME280;32110;45.724;21.276;2023-10-09T11:12:26;101127.44;;;15.51;nan
46408;BME280;32110;45.724;21.276;2023-10-09T11:15:06;101104.66;;;15.56;nan
46408;BME280;32110;45.724;21.276;2023-10-09T11:18:04;101103.91;;;15.72;nan
46408;BME280;32110;45.724;21.276;2023-10-09T11:20:38;101091.25;;;15.79;nan
46408;BME280;32110;45.724;21.276;2023-10-09T11:23:05;101092.78;;;15.92;nan
46408;BME280;32110;45.724;21.276;2023-10-09T11:25:38;101091.56;;;16.00;nan
46408;BME280;32110;45.724;21.276;2023-10-09T11:28:17;101072.72;;;16.01;nan
46408;BME280;32110;45.724;21.276;2023-10-09T11:30:55;101055.97;;;16.01;nan
46408;BME280;32110;45.724;21.276;2023-10-09T11:33:21;101063.06;;;16.12;nan
46408;BME280;32110;45.724;21.276;2023-10-09T11:35:55;101059.34;;;16.13;nan
46408;BME280;32110;45.724;21.276;2023-10-09T11:38:22;101054.59;;;16.15;nan
46408;BME280;32110;45.724;21.276;2023-10-09T11:40:48;101051.94;;;16.15;nan
46408;BME280;32110;45.724;21.276;2023-10-09T11:43:17;101055.25;;;16.27;nan
46408;BME280;32110;45.724;21.276;2023-10-09T11:45:42;101060.66;;;16.32;nan
46408;BME280;32110;45.724;21.276;2023-10-09T11:48:20;101054.03;;;16.35;nan
46408;BME280;32110;45.724;21.276;2023-10-09T11:51:12;101038.91;;;16.35;nan
46408;BME280;32110;45.724;21.276;2023-10-09T11:53:45;101039.53;;;16.43;nan
46408;BME280;32110;45.724;21.276;2023-10-09T11:56:14;101032.03;;;16.40;nan
46408;BME280;32110;45.724;21.276;2023-10-09T11:58:42;101026.75;;;16.45;nan
46408;BME280;32110;45.724;21.276;2023-10-09T12:01:14;101012.44;;;16.46;nan
46408;BME280;32110;45.724;21.276;2023-10-09T12:03:47;101025.88;;;16.61;nan
46408;BME280;32110;45.724;21.276;2023-10-09T12:06:17;101019.03;;;16.65;nan
46408;BME280;32110;45.724;21.276;2023-10-09T12:08:48;101004.41;;;16.68;nan
46408;BME280;32110;45.724;21.276;2023-10-09T12:11:16;100995.13;;;16.70;nan
46408;BME280;32110;45.724;21.276;2023-10-09T12:14:02;100990.63;;;16.71;nan
46408;BME280;32110;45.724;21.276;2023-10-09T12:16:29;101002.19;;;16.82;nan
46408;BME280;32110;45.724;21.276;2023-10-09T12:18:58;101004.09;;;16.86;nan
46408;BME280;32110;45.724;21.276;2023-10-09T12:21:24;101006.56;;;16.93;nan
46408;BME280;32110;45.724;21.276;2023-10-09T12:23:53;100970.56;;;16.85;nan
46408;BME280;32110;45.724;21.276;2023-10-09T12:26:22;100988.03;;;17.03;nan
46408;BME280;32110;45.724;21.276;2023-10-09T12:28:48;100981.69;;;17.09;nan
46408;BME280;32110;45.724;21.276;2023-10-09T12:31:16;100966.25;;;17.11;nan
46408;BME280;32110;45.724;21.276;2023-10-09T12:33:45;100970.91;;;17.26;nan
46408;BME280;32110;45.724;21.276;2023-10-09T12:36:14;100975.72;;;17.29;nan
46408;BME280;32110;45.724;21.276;2023-10-09T12:38:45;100971.78;;;17.37;nan
46408;BME280;32110;45.724;21.276;2023-10-09T12:41:15;100964.88;;;17.36;nan
46408;BME280;32110;45.724;21.276;2023-10-09T12:43:50;100945.13;;;17.32;nan
46408;BME280;32110;45.724;21.276;2023-10-09T12:46:17;100953.19;;;17.42;nan
46408;BME280;32110;45.724;21.276;2023-10-09T12:48:44;100940.09;;;17.40;nan
46408;BME280;32110;45.724;21.276;2023-10-09T12:51:15;100935.09;;;17.44;nan
46408;BME280;32110;45.724;21.276;2023-10-09T12:53:45;100929.53;;;17.51;nan
46408;BME280;32110;45.724;21.276;2023-10-09T12:56:11;100930.38;;;17.56;nan
46408;BME280;32110;45.724;21.276;2023-10-09T12:58:40;100937.84;;;17.64;nan
46408;BME280;32110;45.724;21.276;2023-10-09T13:01:20;100921.34;;;17.62;nan
46408;BME280;32110;45.724;21.276;2023-10-09T13:03:46;100920.59;;;17.72;nan
46408;BME280;32110;45.724;21.276;2023-10-09T13:06:15;100896.88;;;17.71;nan
46408;BME280;32110;45.724;21.276;2023-10-09T13:08:41;100881.19;;;17.74;nan
46408;BME280;32110;45.724;21.276;2023-10-09T13:11:09;100893.50;;;17.85;nan
46408;BME280;32110;45.724;21.276;2023-10-09T13:13:42;100883.63;;;17.86;nan
46408;BME280;32110;45.724;21.276;2023-10-09T13:16:13;100874.28;;;17.83;nan
46408;BME280;32110;45.724;21.276;2023-10-09T13:18:55;100872.19;;;17.85;nan
46408;BME280;32110;45.724;21.276;2023-10-09T13:21:24;100863.13;;;17.87;nan
46408;BME280;32110;45.724;21.276;2023-10-09T13:23:50;100861.28;;;17.87;nan
46408;BME280;32110;45.724;21.276;2023-10-09T13:26:19;100849.53;;;17.88;nan
46408;BME280;32110;45.724;21.276;2023-10-09T13:28:50;100849.28;;;17.95;nan
46408;BME280;32110;45.724;21.276;2023-10-09T13:31:16;100837.56;;;17.91;nan
46408;BME280;32110;45.724;21.276;2023-10-09T13:33:42;100820.78;;;17.90;nan
46408;BME280;32110;45.724;21.276;2023-10-09T13:36:12;100826.94;;;18.01;nan
46408;BME280;32110;45.724;21.276;2023-10-09T13:38:43;100837.84;;;18.04;nan
46408;BME280;32110;45.724;21.276;2023-10-09T13:41:10;100832.81;;;18.03;nan
46408;BME280;32110;45.724;21.276;2023-10-09T13:43:41;100834.41;;;18.09;nan
46408;BME280;32110;45.724;21.276;2023-10-09T13:46:08;100820.03;;;18.10;nan
46408;BME280;32110;45.724;21.276;2023-10-09T13:48:35;100825.63;;;18.14;nan
46408;BME280;32110;45.724;21.276;2023-10-09T13:51:04;100796.81;;;18.00;nan
46408;BME280;32110;45.724;21.276;2023-10-09T13:53:33;100816.28;;;18.11;nan
46408;BME280;32110;45.724;21.276;2023-10-09T13:56:02;100814.41;;;18.17;nan
46408;BME280;32110;45.724;21.276;2023-10-09T13:58:27;100813.09;;;18.19;nan
46408;BME280;32110;45.724;21.276;2023-10-09T14:00:53;100819.25;;;18.20;nan
46408;BME280;32110;45.724;21.276;2023-10-09T14:03:18;100807.75;;;18.19;nan
46408;BME280;32110;45.724;21.276;2023-10-09T14:05:48;100795.22;;;18.15;nan
46408;BME280;32110;45.724;21.276;2023-10-09T14:08:20;100796.84;;;18.21;nan
46408;BME280;32110;45.724;21.276;2023-10-09T14:10:51;100782.44;;;18.22;nan
46408;BME280;32110;45.724;21.276;2023-10-09T14:13:16;100760.06;;;18.13;nan
46408;BME280;32110;45.724;21.276;2023-10-09T14:15:51;100750.44;;;18.17;nan
46408;BME280;32110;45.724;21.276;2023-10-09T14:18:17;100766.44;;;18.12;nan
46408;BME280;32110;45.724;21.276;2023-10-09T14:20:43;100771.22;;;18.04;nan
46408;BME280;32110;45.724;21.276;2023-10-09T14:23:08;100755.53;;;18.08;nan
46408;BME280;32110;45.724;21.276;2023-10-09T14:25:37;100754.69;;;18.07;nan
46408;BME280;32110;45.724;21.276;2023-10-09T14:28:08;100746.72;;;17.97;nan
46408;BME280;32110;45.724;21.276;2023-10-09T14:30:35;100748.31;;;17.98;nan
46408;BME280;32110;45.724;21.276;2023-10-09T14:33:10;100763.78;;;18.01;nan
46408;BME280;32110;45.724;21.276;2023-10-09T14:35:44;100729.66;;;17.93;nan
46408;BME280;32110;45.724;21.276;2023-10-09T14:38:13;100724.31;;;17.93;nan
46408;BME280;32110;45.724;21.276;2023-10-09T14:40:45;100761.38;;;17.95;nan
46408;BME280;32110;45.724;21.276;2023-10-09T14:43:11;100771.78;;;17.96;nan
46408;BME280;32110;45.724;21.276;2023-10-09T14:45:46;100778.16;;;17.95;nan
46408;BME280;32110;45.724;21.276;2023-10-09T14:48:19;100765.91;;;17.99;nan
46408;BME280;32110;45.724;21.276;2023-10-09T14:50:50;100738.72;;;18.02;nan
46408;BME280;32110;45.724;21.276;2023-10-09T14:53:22;100743.00;;;18.09;nan
46408;BME280;32110;45.724;21.276;2023-10-09T14:55:58;100750.72;;;18.10;nan
46408;BME280;32110;45.724;21.276;2023-10-09T14:58:29;100737.13;;;18.06;nan
46408;BME280;32110;45.724;21.276;2023-10-09T15:00:56;100727.25;;;18.07;nan
46408;BME280;32110;45.724;21.276;2023-10-09T15:03:22;100715.03;;;18.01;nan
46408;BME280;32110;45.724;21.276;2023-10-09T15:05:48;100700.88;;;17.95;nan
46408;BME280;32110;45.724;21.276;2023-10-09T15:08:14;100713.16;;;18.01;nan
46408;BME280;32110;45.724;21.276;2023-10-09T15:10:50;100733.38;;;17.97;nan
46408;BME280;32110;45.724;21.276;2023-10-09T15:13:21;100727.53;;;17.95;nan
46408;BME280;32110;45.724;21.276;2023-10-09T15:15:54;100728.59;;;17.94;nan
46408;BME280;32110;45.724;21.276;2023-10-09T15:18:21;100724.31;;;17.88;nan
46408;BME280;32110;45.724;21.276;2023-10-09T15:20:47;100732.59;;;17.87;nan
46408;BME280;32110;45.724;21.276;2023-10-09T15:23:13;100740.59;;;17.87;nan
46408;BME280;32110;45.724;21.276;2023-10-09T15:25:39;100742.47;;;17.91;nan
46408;BME280;32110;45.724;21.276;2023-10-09T15:28:08;100733.94;;;17.89;nan
46408;BME280;32110;45.724;21.276;2023-10-09T15:30:35;100745.91;;;17.87;nan
46408;BME280;32110;45.724;21.276;2023-10-09T15:33:04;100732.81;;;17.75;nan
46408;BME280;32110;45.724;21.276;2023-10-09T15:35:30;100751.47;;;17.80;nan
46408;BME280;32110;45.724;21.276;2023-10-09T15:37:59;100756.25;;;17.73;nan
46408;BME280;32110;45.724;21.276;2023-10-09T15:40:28;100750.13;;;17.77;nan
46408;BME280;32110;45.724;21.276;2023-10-09T15:42:58;100747.72;;;17.76;nan
46408;BME280;32110;45.724;21.276;2023-10-09T15:45:24;100738.13;;;17.70;nan
46408;BME280;32110;45.724;21.276;2023-10-09T15:47:53;100757.03;;;17.73;nan
46408;BME280;32110;45.724;21.276;2023-10-09T15:50:20;100758.63;;;17.69;nan
46408;BME280;32110;45.724;21.276;2023-10-09T15:52:51;100754.09;;;17.64;nan
46408;BME280;32110;45.724;21.276;2023-10-09T15:55:17;100738.09;;;17.54;nan
46408;BME280;32110;45.724;21.276;2023-10-09T15:57:46;100760.19;;;17.55;nan
46408;BME280;32110;45.724;21.276;2023-10-09T16:00:17;100761.78;;;17.51;nan
46408;BME280;32110;45.724;21.276;2023-10-09T16:02:47;100762.81;;;17.44;nan
46408;BME280;32110;45.724;21.276;2023-10-09T16:05:13;100760.97;;;17.45;nan
46408;BME280;32110;45.724;21.276;2023-10-09T16:07:39;100756.41;;;17.35;nan
46408;BME280;32110;45.724;21.276;2023-10-09T16:10:07;100767.34;;;17.39;nan
46408;BME280;32110;45.724;21.276;2023-10-09T16:12:36;100769.16;;;17.33;nan
46408;BME280;32110;45.724;21.276;2023-10-09T16:15:02;100777.16;;;17.33;nan
46408;BME280;32110;45.724;21.276;2023-10-09T16:17:31;100786.50;;;17.36;nan
46408;BME280;32110;45.724;21.276;2023-10-09T16:19:56;100775.03;;;17.30;nan
46408;BME280;32110;45.724;21.276;2023-10-09T16:22:21;100770.78;;;17.29;nan
46408;BME280;32110;45.724;21.276;2023-10-09T16:24:50;100776.88;;;17.25;nan
46408;BME280;32110;45.724;21.276;2023-10-09T16:27:15;100792.56;;;17.26;nan
46408;BME280;32110;45.724;21.276;2023-10-09T16:29:44;100783.75;;;17.20;nan
46408;BME280;32110;45.724;21.276;2023-10-09T16:32:10;100769.66;;;17.15;nan
46408;BME280;32110;45.724;21.276;2023-10-09T16:34:36;100776.31;;;17.17;nan
46408;BME280;32110;45.724;21.276;2023-10-09T16:37:03;100774.19;;;17.14;nan
46408;BME280;32110;45.724;21.276;2023-10-09T16:39:32;100775.19;;;17.08;nan
46408;BME280;32110;45.724;21.276;2023-10-09T16:42:03;100775.19;;;17.03;nan
46408;BME280;32110;45.724;21.276;2023-10-09T16:44:30;100777.03;;;17.03;nan
46408;BME280;32110;45.724;21.276;2023-10-09T16:46:56;100775.16;;;16.98;nan
46408;BME280;32110;45.724;21.276;2023-10-09T16:49:23;100777.28;;;16.96;nan
46408;BME280;32110;45.724;21.276;2023-10-09T16:51:51;100782.03;;;16.94;nan
46408;BME280;32110;45.724;21.276;2023-10-09T16:54:16;100773.72;;;16.85;nan
46408;BME280;32110;45.724;21.276;2023-10-09T16:56:42;100789.69;;;16.85;nan
46408;BME280;32110;45.724;21.276;2023-10-09T16:59:11;100802.66;;;16.76;nan
46408;BME280;32110;45.724;21.276;2023-10-09T17:01:40;100790.91;;;16.72;nan
46408;BME280;32110;45.724;21.276;2023-10-09T17:04:06;100787.44;;;16.67;nan
46408;BME280;32110;45.724;21.276;2023-10-09T17:06:37;100795.94;;;16.69;nan
46408;BME280;32110;45.724;21.276;2023-10-09T17:09:06;100794.88;;;16.65;nan
46408;BME280;32110;45.724;21.276;2023-10-09T17:11:33;100792.41;;;16.58;nan
46408;BME280;32110;45.724;21.276;2023-10-09T17:14:02;100800.63;;;16.56;nan
46408;BME280;32110;45.724;21.276;2023-10-09T17:16:31;100805.13;;;16.51;nan
46408;BME280;32110;45.724;21.276;2023-10-09T17:18:56;100800.50;;;16.36;nan
46408;BME280;32110;45.724;21.276;2023-10-09T17:21:25;100804.75;;;16.37;nan
46408;BME280;32110;45.724;21.276;2023-10-09T17:23:54;100798.56;;;16.26;nan
46408;BME280;32110;45.724;21.276;2023-10-09T17:26:20;100805.97;;;16.24;nan
46408;BME280;32110;45.724;21.276;2023-10-09T17:28:49;100799.28;;;16.16;nan
46408;BME280;32110;45.724;21.276;2023-10-09T17:31:17;100780.31;;;16.08;nan
46408;BME280;32110;45.724;21.276;2023-10-09T17:33:45;100786.94;;;16.05;nan
46408;BME280;32110;45.724;21.276;2023-10-09T17:36:11;100800.47;;;16.04;nan
46408;BME280;32110;45.724;21.276;2023-10-09T17:38:37;100786.84;;;15.95;nan
46408;BME280;32110;45.724;21.276;2023-10-09T17:41:05;100795.63;;;15.95;nan
46408;BME280;32110;45.724;21.276;2023-10-09T17:43:31;100792.34;;;15.88;nan
46408;BME280;32110;45.724;21.276;2023-10-09T17:45:56;100791.75;;;15.81;nan
46408;BME280;32110;45.724;21.276;2023-10-09T17:48:24;100788.59;;;15.84;nan
46408;BME280;32110;45.724;21.276;2023-10-09T17:50:50;100800.19;;;15.73;nan
46408;BME280;32110;45.724;21.276;2023-10-09T17:53:20;100805.13;;;15.69;nan
46408;BME280;32110;45.724;21.276;2023-10-09T17:55:45;100816.09;;;15.73;nan
46408;BME280;32110;45.724;21.276;2023-10-09T17:58:12;100808.84;;;15.68;nan
46408;BME280;32110;45.724;21.276;2023-10-09T18:00:42;100810.28;;;15.76;nan
46408;BME280;32110;45.724;21.276;2023-10-09T18:03:09;100811.78;;;15.94;nan
46408;BME280;32110;45.724;21.276;2023-10-09T18:05:35;100800.09;;;15.90;nan
46408;BME280;32110;45.724;21.276;2023-10-09T18:08:01;100784.78;;;15.75;nan
46408;BME280;32110;45.724;21.276;2023-10-09T18:10:28;100797.63;;;15.83;nan
46408;BME280;32110;45.724;21.276;2023-10-09T18:12:56;100796.88;;;15.88;nan
46408;BME280;32110;45.724;21.276;2023-10-09T18:15:21;100793.66;;;15.86;nan
46408;BME280;32110;45.724;21.276;2023-10-09T18:17:47;100800.69;;;15.75;nan
46408;BME280;32110;45.724;21.276;2023-10-09T18:20:12;100800.97;;;15.73;nan
46408;BME280;32110;45.724;21.276;2023-10-09T18:22:37;100787.94;;;15.72;nan
46408;BME280;32110;45.724;21.276;2023-10-09T18:25:03;100787.28;;;15.65;nan
46408;BME280;32110;45.724;21.276;2023-10-09T18:27:29;100780.88;;;15.61;nan
46408;BME280;32110;45.724;21.276;2023-10-09T18:29:55;100793.63;;;15.59;nan
46408;BME280;32110;45.724;21.276;2023-10-09T18:32:22;100787.47;;;15.58;nan
46408;BME280;32110;45.724;21.276;2023-10-09T18:34:49;100797.53;;;15.56;nan
46408;BME280;32110;45.724;21.276;2023-10-09T18:37:16;100787.97;;;15.55;nan
46408;BME280;32110;45.724;21.276;2023-10-09T18:39:44;100771.06;;;15.39;nan
46408;BME280;32110;45.724;21.276;2023-10-09T18:42:14;100782.81;;;15.43;nan
46408;BME280;32110;45.724;21.276;2023-10-09T18:44:39;100781.28;;;15.47;nan
46408;BME280;32110;45.724;21.276;2023-10-09T18:47:08;100775.63;;;15.44;nan
46408;BME280;32110;45.724;21.276;2023-10-09T18:49:34;100788.09;;;15.43;nan
46408;BME280;32110;45.724;21.276;2023-10-09T18:52:03;100789.97;;;15.43;nan
46408;BME280;32110;45.724;21.276;2023-10-09T18:54:31;100808.78;;;15.41;nan
46408;BME280;32110;45.724;21.276;2023-10-09T18:57:03;100828.97;;;15.42;nan
46408;BME280;32110;45.724;21.276;2023-10-09T18:59:32;100836.13;;;15.42;nan
46408;BME280;32110;45.724;21.276;2023-10-09T19:01:58;100835.81;;;15.38;nan
46408;BME280;32110;45.724;21.276;2023-10-09T19:04:23;100813.72;;;15.32;nan
46408;BME280;32110;45.724;21.276;2023-10-09T19:06:49;100816.56;;;15.26;nan
46408;BME280;32110;45.724;21.276;2023-10-09T19:09:16;100820.81;;;15.27;nan
46408;BME280;32110;45.724;21.276;2023-10-09T19:11:52;100823.34;;;15.17;nan
46408;BME280;32110;45.724;21.276;2023-10-09T19:14:22;100818.19;;;15.10;nan
46408;BME280;32110;45.724;21.276;2023-10-09T19:16:47;100830.50;;;15.16;nan
46408;BME280;32110;45.724;21.276;2023-10-09T19:19:13;100827.22;;;15.09;nan
46408;BME280;32110;45.724;21.276;2023-10-09T19:21:38;100827.44;;;15.07;nan